Terminal Aerodrome Forecast
Issued by NWS

Home | Current Version | Previous Version | Text Only | Print | Product List | Glossary On
Versions: 1 2 3 4 5 6 7 8 9 10 11 12 13 14 15 16 17 18
000
FTUS45 KRIW 291700
TAFWRL
TAF
KWRL 291730Z 2918/3018 34010KT P6SM BKN035 OVC050
     FM292000 15006KT P6SM SCT050 BKN080
     FM300900 16006KT P6SM SCT080=

USA.gov is the U.S. government's official web portal to all federal, state and local government web resources and services.